createdAt,value
2024-01-16T00:02:22.315Z,1.50
2024-01-16T00:04:50.513Z,1.50
2024-01-16T00:07:18.731Z,1.50
2024-01-16T00:09:48.312Z,1.50
2024-01-16T00:12:16.516Z,1.50
2024-01-16T00:14:44.925Z,1.40
2024-01-16T00:17:13.683Z,1.40
2024-01-16T00:19:42.635Z,1.60
2024-01-16T00:22:10.827Z,1.40
2024-01-16T00:24:39.047Z,1.60
2024-01-16T00:27:10.897Z,1.50
2024-01-16T00:29:40.786Z,1.60
2024-01-16T00:32:09.618Z,1.70
2024-01-16T00:34:37.943Z,1.50
2024-01-16T00:37:06.629Z,1.50
2024-01-16T00:39:34.955Z,1.70
2024-01-16T00:42:04.149Z,1.60
2024-01-16T00:44:33.759Z,1.60
2024-01-16T00:47:03.255Z,1.60
2024-01-16T00:49:31.818Z,1.60
2024-01-16T00:52:00.051Z,1.60
2024-01-16T00:54:28.289Z,1.60
2024-01-16T00:57:00.824Z,1.70
2024-01-16T00:59:29.204Z,1.50
2024-01-16T01:01:59.384Z,1.60
2024-01-16T01:04:27.665Z,1.50
2024-01-16T01:06:55.855Z,1.70
2024-01-16T01:09:24.048Z,1.50
2024-01-16T01:11:52.336Z,1.50
2024-01-16T01:14:20.761Z,1.40
2024-01-16T01:16:49.090Z,1.50
2024-01-16T01:19:18.802Z,1.40
2024-01-16T01:21:47.004Z,1.40
2024-01-16T01:24:15.261Z,1.60
2024-01-16T01:26:45.449Z,1.50
2024-01-16T01:29:13.760Z,1.40
2024-01-16T01:31:41.993Z,1.50
2024-01-16T01:34:10.280Z,1.50
2024-01-16T01:36:39.915Z,1.50
2024-01-16T01:39:08.470Z,1.50
2024-01-16T01:41:36.694Z,1.30
2024-01-16T01:44:05.738Z,1.40
2024-01-16T01:46:35.584Z,1.40
2024-01-16T01:49:04.818Z,1.60
2024-01-16T01:51:33.550Z,1.50
2024-01-16T01:54:04.091Z,1.40
2024-01-16T01:56:32.368Z,1.40
2024-01-16T01:59:00.805Z,1.50
2024-01-16T02:01:31.598Z,1.40
2024-01-16T02:04:01.353Z,1.40
2024-01-16T02:06:29.877Z,1.40
2024-01-16T02:08:58.061Z,1.30
2024-01-16T02:11:27.878Z,1.40
2024-01-16T02:13:56.084Z,1.30
2024-01-16T02:16:25.600Z,1.30
2024-01-16T02:18:55.041Z,1.30
2024-01-16T02:21:24.899Z,1.20
2024-01-16T02:23:54.682Z,1.20
2024-01-16T02:26:23.313Z,1.20
2024-01-16T02:28:52.435Z,1.30
2024-01-16T02:31:20.630Z,1.30
2024-01-16T02:33:49.018Z,1.40
2024-01-16T02:36:17.324Z,1.20
2024-01-16T02:38:46.640Z,1.30
2024-01-16T02:41:18.249Z,1.30
2024-01-16T02:43:47.144Z,1.30
2024-01-16T02:46:15.442Z,1.30
2024-01-16T02:48:44.718Z,1.30
2024-01-16T02:51:13.139Z,1.30
2024-01-16T02:53:41.517Z,1.20
2024-01-16T02:56:10.786Z,1.20
2024-01-16T02:58:40.595Z,1.20
2024-01-16T03:01:08.856Z,1.20
2024-01-16T03:03:37.435Z,1.20
2024-01-16T03:06:06.225Z,1.20
2024-01-16T03:08:34.484Z,1.20
2024-01-16T03:11:02.696Z,1.20
2024-01-16T03:13:30.971Z,1.20
2024-01-16T03:16:00.524Z,1.20
2024-01-16T03:18:28.954Z,1.20
2024-01-16T03:20:57.308Z,1.20
2024-01-16T03:23:26.000Z,1.20
2024-01-16T03:25:54.224Z,1.20
2024-01-16T03:28:22.397Z,1.20
2024-01-16T03:30:50.773Z,1.10
2024-01-16T03:33:20.673Z,1.20
2024-01-16T03:35:49.727Z,1.20
2024-01-16T03:38:18.060Z,1.20
2024-01-16T03:40:46.388Z,1.40
2024-01-16T03:43:14.941Z,1.30
2024-01-16T03:45:43.474Z,1.20
2024-01-16T03:48:11.847Z,1.40
2024-01-16T03:50:45.094Z,1.30
2024-01-16T03:53:14.030Z,1.30
2024-01-16T03:55:42.500Z,1.30
2024-01-16T03:58:13.413Z,1.30
2024-01-16T04:00:42.255Z,1.40
2024-01-16T04:03:10.550Z,1.30
2024-01-16T04:05:39.074Z,1.30
2024-01-16T04:08:08.933Z,1.30
2024-01-16T04:10:37.946Z,1.40
2024-01-16T04:13:06.853Z,1.30
2024-01-16T04:15:35.097Z,1.20
2024-01-16T04:18:04.386Z,1.20
2024-01-16T04:20:34.428Z,1.30
2024-01-16T04:23:02.647Z,1.20
2024-01-16T04:25:32.204Z,1.10
2024-01-16T04:28:03.219Z,1.10
2024-01-16T04:30:31.938Z,1.10
2024-01-16T04:33:00.327Z,1.10
2024-01-16T04:35:28.688Z,1.10
2024-01-16T04:37:56.845Z,1.10
2024-01-16T04:40:25.059Z,1.10
2024-01-16T04:42:54.586Z,1.10
2024-01-16T04:45:22.857Z,1.20
2024-01-16T04:47:51.224Z,1.10
2024-01-16T04:50:20.292Z,1.00
2024-01-16T04:52:49.527Z,1.00
2024-01-16T04:55:18.679Z,1.10
2024-01-16T04:57:46.870Z,1.00
2024-01-16T05:00:17.091Z,1.20
2024-01-16T05:02:45.323Z,1.00
2024-01-16T05:05:13.743Z,1.00
2024-01-16T05:07:42.085Z,0.90
2024-01-16T05:10:13.135Z,0.90
2024-01-16T05:12:41.495Z,1.10
2024-01-16T05:15:12.350Z,1.00
2024-01-16T05:17:42.161Z,1.00
2024-01-16T05:20:11.860Z,1.00
2024-01-16T05:22:40.698Z,1.00
2024-01-16T05:25:09.802Z,1.00
2024-01-16T05:27:38.001Z,1.00
2024-01-16T05:30:08.128Z,1.00
2024-01-16T05:32:36.801Z,0.90
2024-01-16T05:35:07.767Z,1.00
2024-01-16T05:37:36.110Z,0.90
2024-01-16T05:40:05.074Z,0.90
2024-01-16T05:42:33.292Z,0.90
2024-01-16T05:45:01.508Z,0.80
2024-01-16T05:47:29.828Z,0.80
2024-01-16T05:49:58.286Z,0.80
2024-01-16T05:52:27.925Z,0.80
2024-01-16T05:54:58.517Z,0.80
2024-01-16T05:57:26.743Z,0.80
2024-01-16T05:59:54.967Z,0.80
2024-01-16T06:02:23.192Z,0.70
2024-01-16T06:04:51.379Z,0.70
2024-01-16T06:07:19.716Z,0.70
2024-01-16T06:09:49.262Z,0.60
2024-01-16T06:12:17.437Z,0.70
2024-01-16T06:14:45.744Z,0.80
2024-01-16T06:17:14.177Z,0.60
2024-01-16T06:19:42.407Z,0.70
2024-01-16T06:22:11.213Z,0.50
2024-01-16T06:24:39.424Z,0.40
2024-01-16T06:27:08.996Z,0.40
2024-01-16T06:29:37.310Z,0.40
2024-01-16T06:32:05.892Z,0.30
2024-01-16T06:34:34.093Z,0.30
2024-01-16T06:37:02.405Z,0.20
2024-01-16T06:39:30.593Z,0.20
2024-01-16T06:41:58.806Z,0.20
2024-01-16T06:44:28.475Z,0.10
2024-01-16T06:46:56.660Z,0.00
2024-01-16T06:49:24.961Z,-0.10
2024-01-16T06:51:53.191Z,-0.10
2024-01-16T06:54:22.665Z,-0.30
2024-01-16T06:56:51.054Z,-0.30
2024-01-16T06:59:20.871Z,-0.40
2024-01-16T07:01:50.774Z,-0.40
2024-01-16T07:04:19.052Z,-0.50
2024-01-16T07:06:47.794Z,-0.50
2024-01-16T07:09:17.330Z,-0.50
2024-01-16T07:11:45.596Z,-0.60
2024-01-16T07:14:14.640Z,-0.60
2024-01-16T07:16:42.842Z,-0.60
2024-01-16T07:19:13.205Z,-0.60
2024-01-16T07:21:41.668Z,-0.60
2024-01-16T07:24:09.857Z,-0.60
2024-01-16T07:26:38.104Z,-0.60
2024-01-16T07:29:06.346Z,-0.60
2024-01-16T07:31:34.591Z,-0.70
2024-01-16T07:34:02.889Z,-0.70
2024-01-16T07:36:32.719Z,-0.70
2024-01-16T07:39:01.729Z,-0.70
2024-01-16T07:41:30.004Z,-0.70
2024-01-16T07:43:58.764Z,-0.60
2024-01-16T07:46:26.983Z,-0.40
2024-01-16T07:48:55.431Z,0.30
2024-01-16T07:51:23.712Z,1.30
2024-01-16T07:54:07.792Z,2.30
2024-01-16T07:56:36.188Z,2.80
2024-01-16T07:59:04.682Z,3.50
2024-01-16T08:01:33.619Z,4.50
2024-01-16T08:04:01.993Z,5.50
2024-01-16T08:06:30.660Z,6.30
2024-01-16T08:09:00.393Z,6.60
2024-01-16T08:11:28.698Z,7.00
2024-01-16T08:13:57.014Z,6.60
2024-01-16T08:16:25.249Z,6.50
2024-01-16T08:18:53.586Z,6.90
2024-01-16T08:21:21.864Z,7.40
2024-01-16T08:23:50.207Z,6.60
2024-01-16T08:26:19.864Z,6.00
2024-01-16T08:28:48.170Z,5.70
2024-01-16T08:31:19.709Z,5.40
2024-01-16T08:33:50.759Z,4.80
2024-01-16T08:36:20.875Z,4.70
2024-01-16T08:38:49.180Z,4.40
2024-01-16T08:41:17.432Z,4.60
2024-01-16T08:43:47.099Z,4.30
2024-01-16T08:46:16.344Z,3.70
2024-01-16T08:48:44.722Z,3.50
2024-01-16T08:51:15.265Z,3.50
2024-01-16T08:53:43.769Z,3.40
2024-01-16T08:56:13.675Z,3.20
2024-01-16T08:58:42.216Z,3.70
2024-01-16T09:01:12.544Z,4.00
2024-01-16T09:03:40.817Z,4.00
2024-01-16T09:06:10.053Z,4.30
2024-01-16T09:08:38.728Z,4.40
2024-01-16T09:11:07.006Z,5.30
2024-01-16T09:13:35.385Z,6.60
2024-01-16T09:16:03.649Z,7.30
2024-01-16T09:18:33.556Z,8.00
2024-01-16T09:21:02.071Z,8.40
2024-01-16T09:23:30.474Z,9.10
2024-01-16T09:25:58.782Z,9.40
2024-01-16T09:28:29.976Z,9.80
2024-01-16T09:30:58.341Z,10.40
2024-01-16T09:33:27.906Z,11.50
2024-01-16T09:35:57.841Z,11.80
2024-01-16T09:38:26.321Z,12.30
2024-01-16T09:40:58.061Z,12.60
2024-01-16T09:43:27.658Z,12.50
2024-01-16T09:46:01.069Z,12.80
2024-01-16T09:48:33.327Z,13.80
2024-01-16T09:51:03.543Z,13.90
2024-01-16T09:53:31.870Z,14.30
2024-01-16T09:56:05.202Z,15.20
2024-01-16T09:58:36.454Z,15.60
2024-01-16T10:01:06.016Z,15.70
2024-01-16T10:03:36.021Z,16.50
2024-01-16T10:06:07.244Z,17.10
2024-01-16T10:08:35.815Z,17.70
2024-01-16T10:11:04.131Z,17.90
2024-01-16T10:13:33.211Z,17.40
2024-01-16T10:16:01.705Z,16.80
2024-01-16T10:18:32.138Z,17.10
2024-01-16T10:21:00.551Z,16.90
2024-01-16T10:23:31.297Z,16.40
2024-01-16T10:26:08.019Z,17.50
2024-01-16T10:28:36.645Z,17.60
2024-01-16T10:31:06.143Z,17.20
2024-01-16T10:33:38.706Z,16.90
2024-01-16T10:36:12.162Z,15.90
2024-01-16T10:38:42.603Z,15.20
2024-01-16T10:41:15.029Z,15.30
2024-01-16T10:43:45.374Z,16.20
2024-01-16T10:46:15.754Z,15.90
2024-01-16T10:48:45.521Z,15.10
2024-01-16T10:51:16.867Z,14.70
2024-01-16T10:53:48.039Z,15.10
2024-01-16T10:56:19.533Z,15.50
2024-01-16T10:58:54.092Z,15.40
2024-01-16T11:01:22.888Z,14.90
2024-01-16T11:03:54.206Z,15.00
2024-01-16T11:06:23.248Z,14.80
2024-01-16T11:08:54.723Z,14.20
2024-01-16T11:11:24.694Z,13.10
2024-01-16T11:13:53.993Z,12.50
2024-01-16T11:16:23.305Z,11.80
2024-01-16T11:18:51.735Z,11.50
2024-01-16T11:21:20.194Z,11.20
2024-01-16T11:23:49.484Z,11.10
2024-01-16T11:26:30.339Z,10.70
2024-01-16T11:29:00.237Z,10.60
2024-01-16T11:31:33.287Z,10.50
2024-01-16T11:34:02.697Z,10.60
2024-01-16T11:36:55.640Z,10.20
2024-01-16T11:39:26.159Z,9.60
2024-01-16T11:41:57.494Z,9.10
2024-01-16T11:44:48.431Z,8.70
2024-01-16T11:47:21.078Z,8.50
2024-01-16T11:49:50.482Z,8.30
2024-01-16T11:52:43.470Z,8.00
2024-01-16T11:55:31.997Z,7.80
2024-01-16T11:58:23.667Z,8.10
2024-01-16T12:00:53.577Z,8.10
2024-01-16T12:03:31.795Z,7.70
2024-01-16T12:06:04.730Z,7.50
2024-01-16T12:08:33.403Z,7.40
2024-01-16T12:11:01.860Z,8.10
2024-01-16T12:13:31.688Z,8.60
2024-01-16T12:16:03.308Z,8.90
2024-01-16T12:18:40.418Z,9.40
2024-01-16T12:21:14.215Z,9.90
2024-01-16T12:23:49.629Z,10.20
2024-01-16T12:26:24.783Z,10.80
2024-01-16T12:28:58.842Z,12.00
2024-01-16T12:31:29.586Z,12.90
2024-01-16T12:34:09.007Z,14.00
2024-01-16T12:36:38.613Z,14.80
2024-01-16T12:39:06.966Z,15.40
2024-01-16T12:41:42.853Z,15.90
2024-01-16T12:44:16.769Z,16.40
2024-01-16T12:46:46.873Z,16.40
2024-01-16T12:49:15.410Z,16.10
2024-01-16T12:51:43.729Z,16.20
2024-01-16T12:54:16.566Z,16.40
2024-01-16T12:56:45.187Z,16.30
2024-01-16T12:59:15.349Z,16.60
2024-01-16T13:01:45.317Z,16.90
2024-01-16T13:04:15.176Z,17.00
2024-01-16T13:06:45.322Z,17.10
2024-01-16T13:09:18.130Z,16.90
2024-01-16T13:11:53.978Z,17.20
2024-01-16T13:14:24.669Z,18.10
2024-01-16T13:16:56.945Z,18.60
2024-01-16T13:19:27.016Z,19.40
2024-01-16T13:21:55.448Z,19.50
2024-01-16T13:24:25.261Z,19.80
2024-01-16T13:26:54.193Z,20.20
2024-01-16T13:29:23.862Z,21.00
2024-01-16T13:31:56.481Z,21.10
2024-01-16T13:34:27.053Z,21.40
2024-01-16T13:37:14.745Z,21.40
2024-01-16T13:39:44.811Z,21.80
2024-01-16T13:42:12.989Z,22.10
2024-01-16T13:44:42.643Z,22.30
2024-01-16T13:47:13.620Z,22.20
2024-01-16T13:49:44.693Z,21.10
2024-01-16T13:52:13.035Z,21.00
2024-01-16T13:54:41.484Z,21.10
2024-01-16T13:57:10.941Z,20.80
2024-01-16T13:59:43.445Z,21.20
2024-01-16T14:02:11.751Z,21.10
2024-01-16T14:04:40.017Z,21.20
2024-01-16T14:07:12.632Z,21.30
2024-01-16T14:09:45.216Z,21.50
2024-01-16T14:12:15.179Z,21.60
2024-01-16T14:14:45.171Z,21.30
2024-01-16T14:17:13.805Z,21.40
2024-01-16T14:19:42.113Z,21.00
2024-01-16T14:22:11.081Z,20.50
2024-01-16T14:24:39.527Z,20.20
2024-01-16T14:27:08.163Z,20.70
2024-01-16T14:29:38.063Z,21.30
2024-01-16T14:32:07.956Z,21.60
2024-01-16T14:34:36.337Z,20.60
2024-01-16T14:37:04.871Z,19.80
2024-01-16T14:39:33.100Z,18.90
2024-01-16T14:42:01.593Z,17.90
2024-01-16T14:44:30.271Z,16.80
2024-01-16T14:46:58.529Z,15.60
2024-01-16T14:49:32.813Z,14.70
2024-01-16T14:52:02.462Z,13.00
2024-01-16T14:54:30.916Z,12.40
2024-01-16T14:57:00.232Z,11.70
2024-01-16T14:59:28.594Z,11.00
2024-01-16T15:01:56.800Z,10.40
2024-01-16T15:04:25.162Z,9.70
2024-01-16T15:06:56.873Z,9.00
2024-01-16T15:09:25.463Z,8.70
2024-01-16T15:11:54.138Z,8.30
2024-01-16T15:14:22.977Z,7.80
2024-01-16T15:16:51.940Z,7.40
2024-01-16T15:19:20.361Z,6.80
2024-01-16T15:21:48.596Z,6.60
2024-01-16T15:24:23.083Z,6.30
2024-01-16T15:26:51.388Z,5.90
2024-01-16T15:29:19.626Z,5.80
2024-01-16T15:31:48.272Z,5.50
2024-01-16T15:34:17.558Z,5.30
2024-01-16T15:36:46.414Z,5.10
2024-01-16T15:39:17.160Z,4.90
2024-01-16T15:41:47.070Z,4.80
2024-01-16T15:44:15.526Z,4.60
2024-01-16T15:46:57.075Z,4.40
2024-01-16T15:49:25.780Z,4.30
2024-01-16T15:51:54.266Z,4.10
2024-01-16T15:54:22.667Z,4.00
2024-01-16T15:56:52.751Z,3.90
2024-01-16T15:59:21.201Z,3.70
2024-01-16T16:01:49.484Z,3.60
2024-01-16T16:04:18.278Z,3.50
2024-01-16T16:06:46.644Z,3.40
2024-01-16T16:09:15.171Z,3.20
2024-01-16T16:11:45.572Z,3.10
2024-01-16T16:14:16.278Z,3.00
2024-01-16T16:16:44.955Z,2.80
2024-01-16T16:19:13.310Z,2.70
2024-01-16T16:21:41.645Z,2.50
2024-01-16T16:24:09.963Z,2.50
2024-01-16T16:26:39.158Z,2.40
2024-01-16T16:29:08.501Z,2.20
2024-01-16T16:31:38.940Z,2.20
2024-01-16T16:34:11.410Z,2.10
2024-01-16T16:36:40.829Z,2.10
2024-01-16T16:39:10.349Z,1.90
2024-01-16T16:41:40.973Z,1.80
2024-01-16T16:44:09.578Z,1.70
2024-01-16T16:46:39.816Z,1.60
2024-01-16T16:49:08.125Z,1.50
2024-01-16T16:51:42.862Z,1.40
2024-01-16T16:54:12.267Z,1.30
2024-01-16T16:56:41.300Z,1.20
2024-01-16T16:59:10.973Z,1.10
2024-01-16T17:01:41.025Z,1.00
2024-01-16T17:04:09.683Z,0.90
2024-01-16T17:06:38.508Z,0.90
2024-01-16T17:09:08.225Z,0.70
2024-01-16T17:11:36.811Z,0.60
2024-01-16T17:14:05.536Z,0.60
2024-01-16T17:16:33.944Z,0.50
2024-01-16T17:19:04.884Z,0.40
2024-01-16T17:21:33.184Z,0.40
2024-01-16T17:24:01.760Z,0.30
2024-01-16T17:26:31.634Z,0.20
2024-01-16T17:29:02.002Z,0.20
2024-01-16T17:31:30.717Z,0.20
2024-01-16T17:33:59.338Z,0.20
2024-01-16T17:36:30.131Z,0.10
2024-01-16T17:39:01.208Z,0.40
2024-01-16T17:41:31.184Z,0.20
2024-01-16T17:44:00.241Z,0.20
2024-01-16T17:46:28.480Z,0.10
2024-01-16T17:48:57.916Z,0.10
2024-01-16T17:51:26.594Z,0.00
2024-01-16T17:53:57.070Z,0.10
2024-01-16T17:56:27.028Z,0.20
2024-01-16T17:58:56.204Z,0.20
2024-01-16T18:01:24.494Z,0.20
2024-01-16T18:03:53.672Z,0.10
2024-01-16T18:06:23.474Z,0.10
2024-01-16T18:08:52.174Z,0.10
2024-01-16T18:11:22.810Z,0.00
2024-01-16T18:13:51.004Z,0.00
2024-01-16T18:16:19.232Z,0.00
2024-01-16T18:18:47.626Z,0.00
2024-01-16T18:21:16.980Z,0.00
2024-01-16T18:23:45.388Z,0.10
2024-01-16T18:26:14.750Z,0.10
2024-01-16T18:28:44.748Z,0.10
2024-01-16T18:31:17.584Z,0.10
2024-01-16T18:33:47.330Z,0.00
2024-01-16T18:36:15.662Z,0.00
2024-01-16T18:38:46.754Z,0.00
2024-01-16T18:41:15.483Z,0.20
2024-01-16T18:43:46.226Z,0.10
2024-01-16T18:46:16.325Z,0.10
2024-01-16T18:48:46.335Z,0.10
2024-01-16T18:51:15.083Z,0.30
2024-01-16T18:53:43.450Z,0.20
2024-01-16T18:56:15.601Z,0.20
2024-01-16T18:58:45.174Z,0.20
2024-01-16T19:01:14.630Z,0.30
2024-01-16T19:03:43.021Z,0.40
2024-01-16T19:06:14.627Z,0.40
2024-01-16T19:08:43.434Z,0.50
2024-01-16T19:11:11.942Z,0.60
2024-01-16T19:13:41.507Z,0.60
2024-01-16T19:16:11.558Z,0.60
2024-01-16T19:18:42.294Z,0.60
2024-01-16T19:21:11.156Z,0.90
2024-01-16T19:23:40.364Z,0.70
2024-01-16T19:26:09.456Z,0.80
2024-01-16T19:28:37.751Z,0.80
2024-01-16T19:31:06.714Z,0.70
2024-01-16T19:33:36.666Z,0.80
2024-01-16T19:36:06.914Z,0.90
2024-01-16T19:38:36.758Z,0.70
2024-01-16T19:41:05.314Z,0.70
2024-01-16T19:43:33.541Z,0.80
2024-01-16T19:46:01.904Z,0.80
2024-01-16T19:48:30.543Z,0.80
2024-01-16T19:51:01.254Z,0.80
2024-01-16T19:53:29.538Z,0.80
2024-01-16T19:56:00.142Z,0.80
2024-01-16T19:58:28.773Z,1.00
2024-01-16T20:00:57.120Z,0.80
2024-01-16T20:03:25.582Z,0.80
2024-01-16T20:05:53.942Z,0.80
2024-01-16T20:08:25.746Z,1.00
2024-01-16T20:10:54.020Z,0.90
2024-01-16T20:13:22.236Z,0.90
2024-01-16T20:15:51.529Z,0.80
2024-01-16T20:18:19.951Z,0.90
2024-01-16T20:20:48.547Z,0.80
2024-01-16T20:23:16.947Z,0.90
2024-01-16T20:25:46.680Z,0.90
2024-01-16T20:28:15.772Z,0.90
2024-01-16T20:30:45.425Z,1.00
2024-01-16T20:33:13.773Z,1.00
2024-01-16T20:35:42.091Z,1.00
2024-01-16T20:38:10.910Z,1.00
2024-01-16T20:40:40.874Z,0.90
2024-01-16T20:43:10.520Z,0.80
2024-01-16T20:45:38.827Z,0.70
2024-01-16T20:48:08.430Z,0.70
2024-01-16T20:50:36.783Z,0.50
2024-01-16T20:53:05.337Z,0.50
2024-01-16T20:55:34.872Z,0.50
2024-01-16T20:58:03.109Z,0.50
2024-01-16T21:00:35.320Z,0.50
2024-01-16T21:03:08.619Z,0.40
2024-01-16T21:05:37.163Z,0.40
2024-01-16T21:08:06.491Z,0.40
2024-01-16T21:10:35.383Z,0.40
2024-01-16T21:13:04.944Z,0.40
2024-01-16T21:15:34.602Z,0.30
2024-01-16T21:18:05.129Z,0.40
2024-01-16T21:20:34.091Z,0.40
2024-01-16T21:23:02.706Z,0.40
2024-01-16T21:25:31.783Z,0.50
2024-01-16T21:28:00.063Z,0.50
2024-01-16T21:30:28.393Z,0.50
2024-01-16T21:32:58.369Z,0.50
2024-01-16T21:35:26.720Z,0.50
2024-01-16T21:37:54.958Z,0.50
2024-01-16T21:40:23.230Z,0.50
2024-01-16T21:42:51.749Z,0.50
2024-01-16T21:45:20.571Z,0.50
2024-01-16T21:47:49.154Z,0.60
2024-01-16T21:50:26.148Z,0.60
2024-01-16T21:53:01.839Z,0.70
2024-01-16T21:55:30.077Z,0.70
2024-01-16T21:57:58.323Z,0.60
2024-01-16T22:00:26.780Z,0.70
2024-01-16T22:02:58.276Z,0.70
2024-01-16T22:05:29.786Z,0.60
2024-01-16T22:07:58.149Z,0.80
2024-01-16T22:10:26.455Z,0.80
2024-01-16T22:12:55.647Z,0.80
2024-01-16T22:15:23.947Z,0.70
2024-01-16T22:17:52.235Z,0.70
2024-01-16T22:20:20.677Z,0.70
2024-01-16T22:22:50.467Z,0.70
2024-01-16T22:25:18.737Z,0.70
2024-01-16T22:27:47.009Z,0.70
2024-01-16T22:30:16.547Z,0.80
2024-01-16T22:32:45.044Z,0.80
2024-01-16T22:35:13.459Z,0.90
2024-01-16T22:37:47.818Z,0.90
2024-01-16T22:40:18.546Z,0.90
2024-01-16T22:42:46.806Z,0.80
2024-01-16T22:45:15.678Z,0.90
2024-01-16T22:47:44.581Z,0.90
2024-01-16T22:50:13.693Z,0.90
2024-01-16T22:52:42.575Z,0.80
2024-01-16T22:55:11.345Z,0.70
2024-01-16T22:57:40.972Z,0.60
2024-01-16T23:00:20.301Z,0.70
2024-01-16T23:02:48.789Z,0.80
2024-01-16T23:05:18.483Z,0.90
2024-01-16T23:07:46.991Z,0.90
2024-01-16T23:10:16.411Z,0.80
2024-01-16T23:12:46.149Z,0.90
2024-01-16T23:15:16.691Z,0.90
2024-01-16T23:17:45.349Z,0.90
2024-01-16T23:20:16.080Z,1.00
2024-01-16T23:22:44.614Z,1.00
2024-01-16T23:25:13.264Z,1.20
2024-01-16T23:27:42.729Z,1.00
2024-01-16T23:30:13.553Z,1.00
2024-01-16T23:32:41.936Z,1.00
2024-01-16T23:35:10.960Z,1.00
2024-01-16T23:37:41.427Z,1.10
2024-01-16T23:40:13.570Z,1.10
2024-01-16T23:42:42.693Z,1.20
2024-01-16T23:45:20.679Z,1.20
2024-01-16T23:47:56.392Z,1.30
2024-01-16T23:50:24.985Z,1.20
2024-01-16T23:52:54.325Z,1.20
2024-01-16T23:55:22.809Z,1.30
2024-01-16T23:57:51.056Z,1.30
